createdAt,value
2019-01-09T00:00:48.000Z,1005.078
2019-01-09T00:10:48.000Z,1005.247
2019-01-09T00:20:48.000Z,1005.12
2019-01-09T00:30:48.000Z,1005.125
2019-01-09T00:40:48.000Z,1005.151
2019-01-09T01:00:48.000Z,1005.127
2019-01-09T01:10:48.000Z,1005.225
2019-01-09T01:20:48.000Z,1005.289
2019-01-09T01:30:48.000Z,1005.435
2019-01-09T01:50:48.000Z,1005.702
2019-01-09T02:00:48.000Z,1005.785
2019-01-09T02:10:48.000Z,1005.931
2019-01-09T02:30:48.000Z,1005.994
2019-01-09T02:40:48.000Z,1006.256
2019-01-09T02:50:48.000Z,1006.333
2019-01-09T03:00:49.000Z,1006.348
2019-01-09T03:10:48.000Z,1006.39
2019-01-09T03:20:48.000Z,1006.448
2019-01-09T03:30:48.000Z,1006.502
2019-01-09T03:40:48.000Z,1006.424
2019-01-09T03:50:48.000Z,1006.412
2019-01-09T04:00:48.000Z,1006.492
2019-01-09T04:10:48.000Z,1006.582
2019-01-09T04:20:48.000Z,1006.557
2019-01-09T04:30:48.000Z,1006.562
2019-01-09T04:40:48.000Z,1006.518
2019-01-09T04:50:48.000Z,1006.465
2019-01-09T05:00:48.000Z,1006.572
2019-01-09T05:10:48.000Z,1006.567
2019-01-09T05:20:48.000Z,1006.672
2019-01-09T05:30:48.000Z,1006.703
2019-01-09T05:40:48.000Z,1006.694
2019-01-09T05:50:48.000Z,1006.74
2019-01-09T06:00:49.000Z,1006.782
2019-01-09T06:10:48.000Z,1006.854
2019-01-09T06:20:48.000Z,1006.916
2019-01-09T06:30:48.000Z,1006.907
2019-01-09T06:40:48.000Z,1006.905
2019-01-09T06:50:48.000Z,1006.983
2019-01-09T07:00:49.000Z,1007.227
2019-01-09T07:10:49.000Z,1007.206
2019-01-09T07:20:49.000Z,1007.413
2019-01-09T07:30:49.000Z,1007.506
2019-01-09T07:40:49.000Z,1007.618
2019-01-09T07:50:53.000Z,1007.725
2019-01-09T08:00:49.000Z,1007.813
2019-01-09T08:10:49.000Z,1007.928
2019-01-09T08:20:49.000Z,1008.082
2019-01-09T08:30:49.000Z,1008.19
2019-01-09T08:40:49.000Z,1008.25
2019-01-09T08:50:49.000Z,1008.328
2019-01-09T09:00:49.000Z,1008.489
2019-01-09T09:10:49.000Z,1008.629
2019-01-09T09:20:49.000Z,1008.723
2019-01-09T09:30:49.000Z,1008.82
2019-01-09T09:40:49.000Z,1008.993
2019-01-09T09:50:49.000Z,1009.085
2019-01-09T10:00:49.000Z,1009.228
2019-01-09T10:10:49.000Z,1009.262
2019-01-09T10:20:49.000Z,1009.264
2019-01-09T10:30:49.000Z,1009.365
2019-01-09T10:40:49.000Z,1009.339
2019-01-09T10:50:50.000Z,1009.321
2019-01-09T11:00:49.000Z,1009.325
2019-01-09T11:10:49.000Z,1009.272
2019-01-09T11:20:49.000Z,1009.167
2019-01-09T11:30:49.000Z,1009.215
2019-01-09T11:40:49.000Z,1009.206
2019-01-09T11:50:49.000Z,1009.214
2019-01-09T12:00:49.000Z,1009.289
2019-01-09T12:10:49.000Z,1009.299
2019-01-09T12:20:49.000Z,1009.23
2019-01-09T12:30:49.000Z,1009.336
2019-01-09T12:40:49.000Z,1009.321
2019-01-09T12:50:49.000Z,1009.333
2019-01-09T13:00:49.000Z,1009.462
2019-01-09T13:10:49.000Z,1009.588
2019-01-09T13:20:49.000Z,1009.713
2019-01-09T13:30:49.000Z,1009.832
2019-01-09T13:40:49.000Z,1010.004
2019-01-09T13:50:49.000Z,1010.002
2019-01-09T14:00:49.000Z,1010.075
2019-01-09T14:10:49.000Z,1010.175
2019-01-09T14:20:49.000Z,1010.21
2019-01-09T14:30:49.000Z,1010.317
2019-01-09T14:40:49.000Z,1010.416
2019-01-09T14:50:49.000Z,1010.562
2019-01-09T15:00:49.000Z,1010.716
2019-01-09T15:10:50.000Z,1010.678
2019-01-09T15:20:50.000Z,1010.805
2019-01-09T15:40:50.000Z,1011.061
2019-01-09T16:00:50.000Z,1011.249
2019-01-09T16:20:50.000Z,1011.406
2019-01-09T16:40:52.000Z,1011.55
2019-01-09T16:50:50.000Z,1011.64
2019-01-09T17:00:50.000Z,1011.816
2019-01-09T17:10:50.000Z,1011.943
2019-01-09T17:20:50.000Z,1012.049
2019-01-09T17:30:50.000Z,1012.2
2019-01-09T17:40:50.000Z,1012.329
2019-01-09T17:50:50.000Z,1012.456
2019-01-09T18:00:50.000Z,1012.649
2019-01-09T18:10:50.000Z,1012.843
2019-01-09T18:20:50.000Z,1012.921
2019-01-09T18:30:50.000Z,1012.97
2019-01-09T18:40:50.000Z,1013.046
2019-01-09T18:50:50.000Z,1013.151
2019-01-09T19:00:50.000Z,1013.271
2019-01-09T19:10:50.000Z,1013.39
2019-01-09T19:20:50.000Z,1013.455
2019-01-09T19:30:50.000Z,1013.546
2019-01-09T19:40:50.000Z,1013.542
2019-01-09T19:50:50.000Z,1013.695
2019-01-09T20:00:50.000Z,1013.697
2019-01-09T20:10:50.000Z,1013.829
2019-01-09T20:20:50.000Z,1013.969
2019-01-09T20:30:50.000Z,1014.071
2019-01-09T20:40:51.000Z,1014.241
2019-01-09T20:50:50.000Z,1014.393
2019-01-09T21:00:50.000Z,1014.443
2019-01-09T21:10:51.000Z,1014.452
2019-01-09T21:20:50.000Z,1014.595
2019-01-09T21:30:50.000Z,1014.64
2019-01-09T21:40:51.000Z,1014.783
2019-01-09T21:50:50.000Z,1014.971
2019-01-09T22:00:50.000Z,1014.946
2019-01-09T22:10:50.000Z,1014.859
2019-01-09T22:20:51.000Z,1014.961
2019-01-09T22:30:50.000Z,1015.116
2019-01-09T22:40:50.000Z,1015.184
2019-01-09T22:50:50.000Z,1015.18
2019-01-09T23:00:50.000Z,1015.086
2019-01-09T23:10:50.000Z,1015.04
2019-01-09T23:20:51.000Z,1015.148
2019-01-09T23:30:51.000Z,1015.143
2019-01-09T23:40:51.000Z,1015.189
2019-01-09T23:50:51.000Z,1015.272
